Etusivu
METAR-TAF:

METAR-TAF

Lentoasemat :

Vaasan lentoasema

Vaasa, Suomi

Leveyspiiri: 63-03N, Pituuspiiri: 021-46E, korkeus merenpinnasta: 4 m

Tämänhetkinen sää

Tämä raportti tehtiin 24 minuuttia sitten, kello 10.20 UTC
Tuuli 5 kn idästä, vaihdellen idän/koillisen ja idän/kaakon välillä
Lämpötila 2°C
Kosteus 93%
Ilmanpaine 997 hPa
Näkyvyys: 9000 m
tihkusadetta

METAR: EFVA 101020Z AUTO 08005KT 060V120 9000 DZ OVC004/// 02/01 Q0997

Aika: 12:44 (10:44 UTC)

Sääennuste

Tämä raportti tehtiin 2 tuntia ja 7 minuuttia sitten, kello 08.37 UTC
Ennuste voimassa 10. päivästä klo 09 UTC - 11. päivään klo 09 UTC
Tuuli 6 kn idästä
Näkyvyys: 8000 m
Pilvistä 600 ft:n korkeudessa
heikkoa sadetta
Todennäköisyys 40% :
Ajoittain
10. päivästä klo 09 UTC - 11. päivään klo 09 UTC
Näkyvyys: 4000 m
Hajonneita pilviä 400 ft:n korkeudessa
utua

TAF: EFVA 100837Z 1009/1109 10006KT 8000 -RA OVC006 PROB40 TEMPO 1009/1109 4000 BR BKN004

Säähavainnot ja -ennusteet yli 4000 lentoasemalta (METAR- ja TAF-raportit).

Käytössä olevat sääasemat on merkitty karttaan keltaisilla ja punaisilla pisteillä.

Aseta hiiri pisteen päälle nähdäksesi sääaseman nimen.

Klikkaa sitten nähdäksesi säähavainnot ja -ennusteet.

Kartan vaihtaminen: klikkaa mustalla rastilla varustettuja vihreitä pisteitä, niin voit zoomata sisään; viivalla varustettua vihreää pistettä, niin voit zoomata ulos tai vihreitä nuolia, niin pääset viereisille kartoille.


METAR-TAF: